sensor_id;sensor_type;location;lat;lon;timestamp;P1;durP1;ratioP1;P2;durP2;ratioP2
4202;SDS011;2115;51.038;7.006;2022-08-03T00:01:16;792.87;;;650.83;;
4202;SDS011;2115;51.038;7.006;2022-08-03T00:03:42;788.13;;;642.93;;
4202;SDS011;2115;51.038;7.006;2022-08-03T00:06:07;783.43;;;627.47;;
4202;SDS011;2115;51.038;7.006;2022-08-03T00:08:33;792.53;;;642.70;;
4202;SDS011;2115;51.038;7.006;2022-08-03T00:10:58;786.50;;;625.73;;
4202;SDS011;2115;51.038;7.006;2022-08-03T00:13:24;792.20;;;650.40;;
4202;SDS011;2115;51.038;7.006;2022-08-03T00:15:50;790.57;;;657.63;;
4202;SDS011;2115;51.038;7.006;2022-08-03T00:18:15;795.40;;;643.67;;
4202;SDS011;2115;51.038;7.006;2022-08-03T00:20:40;788.87;;;614.67;;
4202;SDS011;2115;51.038;7.006;2022-08-03T00:23:06;791.93;;;638.87;;
4202;SDS011;2115;51.038;7.006;2022-08-03T00:25:32;792.03;;;634.53;;
4202;SDS011;2115;51.038;7.006;2022-08-03T00:27:59;796.73;;;663.10;;
4202;SDS011;2115;51.038;7.006;2022-08-03T00:30:24;787.17;;;623.17;;
4202;SDS011;2115;51.038;7.006;2022-08-03T00:32:50;789.50;;;622.90;;
4202;SDS011;2115;51.038;7.006;2022-08-03T00:35:15;787.83;;;626.80;;
4202;SDS011;2115;51.038;7.006;2022-08-03T00:37:41;787.07;;;613.57;;
4202;SDS011;2115;51.038;7.006;2022-08-03T00:40:06;788.30;;;621.07;;
4202;SDS011;2115;51.038;7.006;2022-08-03T00:42:33;787.07;;;625.00;;
4202;SDS011;2115;51.038;7.006;2022-08-03T00:44:58;784.83;;;618.93;;
4202;SDS011;2115;51.038;7.006;2022-08-03T00:47:24;781.47;;;594.60;;
4202;SDS011;2115;51.038;7.006;2022-08-03T00:49:49;785.03;;;618.53;;
4202;SDS011;2115;51.038;7.006;2022-08-03T00:52:14;778.87;;;601.27;;
4202;SDS011;2115;51.038;7.006;2022-08-03T00:54:41;795.43;;;626.27;;
4202;SDS011;2115;51.038;7.006;2022-08-03T00:57:07;789.43;;;606.57;;
4202;SDS011;2115;51.038;7.006;2022-08-03T00:59:32;787.73;;;618.93;;
4202;SDS011;2115;51.038;7.006;2022-08-03T01:01:58;792.13;;;619.40;;
4202;SDS011;2115;51.038;7.006;2022-08-03T01:04:24;789.17;;;628.03;;
4202;SDS011;2115;51.038;7.006;2022-08-03T01:06:51;783.47;;;603.63;;
4202;SDS011;2115;51.038;7.006;2022-08-03T01:09:29;780.77;;;588.63;;
4202;SDS011;2115;51.038;7.006;2022-08-03T01:14:55;780.13;;;599.80;;
4202;SDS011;2115;51.038;7.006;2022-08-03T01:17:28;771.17;;;563.00;;
4202;SDS011;2115;51.038;7.006;2022-08-03T01:20:07;770.93;;;571.40;;
4202;SDS011;2115;51.038;7.006;2022-08-03T01:22:49;779.93;;;599.03;;
4202;SDS011;2115;51.038;7.006;2022-08-03T01:28:32;774.67;;;577.17;;
4202;SDS011;2115;51.038;7.006;2022-08-03T01:31:06;781.03;;;597.60;;
4202;SDS011;2115;51.038;7.006;2022-08-03T01:33:38;789.47;;;632.97;;
4202;SDS011;2115;51.038;7.006;2022-08-03T01:36:08;793.93;;;616.27;;
4202;SDS011;2115;51.038;7.006;2022-08-03T01:38:41;774.87;;;569.73;;
4202;SDS011;2115;51.038;7.006;2022-08-03T01:41:12;783.93;;;572.97;;
4202;SDS011;2115;51.038;7.006;2022-08-03T01:43:41;771.60;;;575.53;;
4202;SDS011;2115;51.038;7.006;2022-08-03T01:46:07;767.50;;;541.17;;
4202;SDS011;2115;51.038;7.006;2022-08-03T01:48:32;764.30;;;542.43;;
4202;SDS011;2115;51.038;7.006;2022-08-03T01:51:00;774.17;;;571.93;;
4202;SDS011;2115;51.038;7.006;2022-08-03T01:53:26;776.97;;;555.33;;
4202;SDS011;2115;51.038;7.006;2022-08-03T01:55:53;771.03;;;566.73;;
4202;SDS011;2115;51.038;7.006;2022-08-03T01:58:19;769.77;;;560.43;;
4202;SDS011;2115;51.038;7.006;2022-08-03T02:00:46;769.80;;;559.90;;
4202;SDS011;2115;51.038;7.006;2022-08-03T02:03:13;764.03;;;538.67;;
4202;SDS011;2115;51.038;7.006;2022-08-03T02:05:39;761.10;;;536.33;;
4202;SDS011;2115;51.038;7.006;2022-08-03T02:08:07;764.93;;;546.37;;
4202;SDS011;2115;51.038;7.006;2022-08-03T02:10:33;757.27;;;512.83;;
4202;SDS011;2115;51.038;7.006;2022-08-03T02:13:00;767.43;;;559.50;;
4202;SDS011;2115;51.038;7.006;2022-08-03T02:15:27;760.80;;;529.53;;
4202;SDS011;2115;51.038;7.006;2022-08-03T02:17:54;759.23;;;524.60;;
4202;SDS011;2115;51.038;7.006;2022-08-03T02:20:21;757.23;;;520.77;;
4202;SDS011;2115;51.038;7.006;2022-08-03T02:22:48;762.63;;;542.30;;
4202;SDS011;2115;51.038;7.006;2022-08-03T02:25:14;758.33;;;523.20;;
4202;SDS011;2115;51.038;7.006;2022-08-03T02:27:57;754.70;;;513.67;;
4202;SDS011;2115;51.038;7.006;2022-08-03T02:30:39;766.63;;;533.50;;
4202;SDS011;2115;51.038;7.006;2022-08-03T02:33:09;764.17;;;521.53;;
4202;SDS011;2115;51.038;7.006;2022-08-03T02:35:35;769.87;;;525.50;;
4202;SDS011;2115;51.038;7.006;2022-08-03T02:38:01;747.23;;;487.33;;
4202;SDS011;2115;51.038;7.006;2022-08-03T02:40:28;763.73;;;513.23;;
4202;SDS011;2115;51.038;7.006;2022-08-03T02:42:56;764.50;;;505.93;;
4202;SDS011;2115;51.038;7.006;2022-08-03T02:45:25;753.83;;;504.40;;
4202;SDS011;2115;51.038;7.006;2022-08-03T02:47:51;749.73;;;495.53;;
4202;SDS011;2115;51.038;7.006;2022-08-03T02:50:21;771.27;;;543.47;;
4202;SDS011;2115;51.038;7.006;2022-08-03T02:52:47;760.17;;;528.97;;
4202;SDS011;2115;51.038;7.006;2022-08-03T02:55:13;759.00;;;526.97;;
4202;SDS011;2115;51.038;7.006;2022-08-03T02:57:40;762.50;;;507.90;;
4202;SDS011;2115;51.038;7.006;2022-08-03T03:00:07;757.47;;;530.67;;
4202;SDS011;2115;51.038;7.006;2022-08-03T03:02:33;764.57;;;523.63;;
4202;SDS011;2115;51.038;7.006;2022-08-03T03:04:59;759.60;;;508.93;;
4202;SDS011;2115;51.038;7.006;2022-08-03T03:07:25;759.73;;;540.07;;
4202;SDS011;2115;51.038;7.006;2022-08-03T03:09:51;757.30;;;521.90;;
4202;SDS011;2115;51.038;7.006;2022-08-03T03:12:17;766.43;;;510.80;;
4202;SDS011;2115;51.038;7.006;2022-08-03T03:14:42;756.57;;;529.23;;
4202;SDS011;2115;51.038;7.006;2022-08-03T03:17:08;753.30;;;503.33;;
4202;SDS011;2115;51.038;7.006;2022-08-03T03:19:35;764.07;;;517.93;;
4202;SDS011;2115;51.038;7.006;2022-08-03T03:22:03;753.20;;;507.57;;
4202;SDS011;2115;51.038;7.006;2022-08-03T03:24:30;763.27;;;544.70;;
4202;SDS011;2115;51.038;7.006;2022-08-03T03:26:56;775.27;;;543.97;;
4202;SDS011;2115;51.038;7.006;2022-08-03T03:29:22;752.63;;;514.37;;
4202;SDS011;2115;51.038;7.006;2022-08-03T03:31:48;760.50;;;545.20;;
4202;SDS011;2115;51.038;7.006;2022-08-03T03:34:13;766.70;;;543.70;;
4202;SDS011;2115;51.038;7.006;2022-08-03T03:36:42;752.77;;;516.80;;
4202;SDS011;2115;51.038;7.006;2022-08-03T03:39:08;750.03;;;513.00;;
4202;SDS011;2115;51.038;7.006;2022-08-03T03:41:34;774.93;;;558.70;;
4202;SDS011;2115;51.038;7.006;2022-08-03T03:44:00;750.77;;;505.70;;
4202;SDS011;2115;51.038;7.006;2022-08-03T03:46:25;746.30;;;497.27;;
4202;SDS011;2115;51.038;7.006;2022-08-03T03:48:51;746.73;;;492.90;;
4202;SDS011;2115;51.038;7.006;2022-08-03T03:51:16;748.17;;;497.30;;
4202;SDS011;2115;51.038;7.006;2022-08-03T03:53:58;744.07;;;488.33;;
4202;SDS011;2115;51.038;7.006;2022-08-03T03:56:26;748.57;;;494.23;;
4202;SDS011;2115;51.038;7.006;2022-08-03T03:58:52;750.03;;;490.27;;
4202;SDS011;2115;51.038;7.006;2022-08-03T04:01:18;752.37;;;503.93;;
4202;SDS011;2115;51.038;7.006;2022-08-03T04:03:44;742.50;;;485.57;;
4202;SDS011;2115;51.038;7.006;2022-08-03T04:06:10;748.70;;;496.27;;
4202;SDS011;2115;51.038;7.006;2022-08-03T04:08:54;743.97;;;488.73;;
4202;SDS011;2115;51.038;7.006;2022-08-03T04:11:47;755.00;;;505.40;;
4202;SDS011;2115;51.038;7.006;2022-08-03T04:14:28;739.53;;;472.27;;
4202;SDS011;2115;51.038;7.006;2022-08-03T04:16:58;752.77;;;518.93;;
4202;SDS011;2115;51.038;7.006;2022-08-03T04:19:27;751.50;;;511.83;;
4202;SDS011;2115;51.038;7.006;2022-08-03T04:22:02;749.50;;;507.43;;
4202;SDS011;2115;51.038;7.006;2022-08-03T04:24:37;747.73;;;485.57;;
4202;SDS011;2115;51.038;7.006;2022-08-03T04:27:10;739.10;;;480.30;;
4202;SDS011;2115;51.038;7.006;2022-08-03T04:29:38;744.90;;;499.90;;
4202;SDS011;2115;51.038;7.006;2022-08-03T04:32:06;746.90;;;500.57;;
4202;SDS011;2115;51.038;7.006;2022-08-03T04:34:32;743.63;;;491.13;;
4202;SDS011;2115;51.038;7.006;2022-08-03T04:36:58;748.90;;;513.57;;
4202;SDS011;2115;51.038;7.006;2022-08-03T04:39:28;747.43;;;506.37;;
4202;SDS011;2115;51.038;7.006;2022-08-03T04:41:57;750.33;;;513.63;;
4202;SDS011;2115;51.038;7.006;2022-08-03T04:44:23;745.63;;;494.43;;
4202;SDS011;2115;51.038;7.006;2022-08-03T04:46:49;749.77;;;525.10;;
4202;SDS011;2115;51.038;7.006;2022-08-03T04:49:14;744.00;;;498.67;;
4202;SDS011;2115;51.038;7.006;2022-08-03T04:51:40;745.63;;;510.07;;
4202;SDS011;2115;51.038;7.006;2022-08-03T04:54:08;752.00;;;492.33;;
4202;SDS011;2115;51.038;7.006;2022-08-03T04:56:38;748.60;;;503.43;;
4202;SDS011;2115;51.038;7.006;2022-08-03T04:59:04;746.30;;;506.40;;
4202;SDS011;2115;51.038;7.006;2022-08-03T05:01:30;740.23;;;474.97;;
4202;SDS011;2115;51.038;7.006;2022-08-03T05:03:55;747.63;;;507.73;;
4202;SDS011;2115;51.038;7.006;2022-08-03T05:06:20;749.27;;;486.50;;
4202;SDS011;2115;51.038;7.006;2022-08-03T05:08:46;746.80;;;511.07;;
4202;SDS011;2115;51.038;7.006;2022-08-03T05:11:11;746.00;;;504.13;;
4202;SDS011;2115;51.038;7.006;2022-08-03T05:13:37;745.27;;;504.67;;
4202;SDS011;2115;51.038;7.006;2022-08-03T05:16:02;741.23;;;495.30;;
4202;SDS011;2115;51.038;7.006;2022-08-03T05:18:27;750.43;;;513.17;;
4202;SDS011;2115;51.038;7.006;2022-08-03T05:20:53;754.17;;;519.20;;
4202;SDS011;2115;51.038;7.006;2022-08-03T05:23:18;750.37;;;509.13;;
4202;SDS011;2115;51.038;7.006;2022-08-03T05:25:44;744.80;;;499.23;;
4202;SDS011;2115;51.038;7.006;2022-08-03T05:28:09;756.43;;;525.80;;
4202;SDS011;2115;51.038;7.006;2022-08-03T05:30:35;757.70;;;552.10;;
4202;SDS011;2115;51.038;7.006;2022-08-03T05:33:01;752.57;;;537.70;;
4202;SDS011;2115;51.038;7.006;2022-08-03T05:35:27;756.83;;;544.13;;
4202;SDS011;2115;51.038;7.006;2022-08-03T05:37:53;751.33;;;526.50;;
4202;SDS011;2115;51.038;7.006;2022-08-03T05:40:18;754.50;;;513.10;;
4202;SDS011;2115;51.038;7.006;2022-08-03T05:42:44;758.70;;;534.80;;
4202;SDS011;2115;51.038;7.006;2022-08-03T05:45:09;758.93;;;537.63;;
4202;SDS011;2115;51.038;7.006;2022-08-03T05:47:45;748.50;;;516.83;;
4202;SDS011;2115;51.038;7.006;2022-08-03T05:50:12;756.40;;;530.20;;
4202;SDS011;2115;51.038;7.006;2022-08-03T05:52:38;755.27;;;544.93;;
4202;SDS011;2115;51.038;7.006;2022-08-03T05:55:05;762.53;;;566.47;;
4202;SDS011;2115;51.038;7.006;2022-08-03T05:57:31;757.80;;;550.13;;
4202;SDS011;2115;51.038;7.006;2022-08-03T05:59:57;767.80;;;566.33;;
4202;SDS011;2115;51.038;7.006;2022-08-03T06:02:22;768.27;;;568.57;;
4202;SDS011;2115;51.038;7.006;2022-08-03T06:04:47;767.87;;;569.17;;
4202;SDS011;2115;51.038;7.006;2022-08-03T06:07:13;776.03;;;591.10;;
4202;SDS011;2115;51.038;7.006;2022-08-03T06:09:38;774.47;;;593.00;;
4202;SDS011;2115;51.038;7.006;2022-08-03T06:12:05;761.90;;;566.27;;
4202;SDS011;2115;51.038;7.006;2022-08-03T06:14:31;769.80;;;579.20;;
4202;SDS011;2115;51.038;7.006;2022-08-03T06:16:56;763.50;;;575.50;;
4202;SDS011;2115;51.038;7.006;2022-08-03T06:19:22;781.30;;;625.63;;
4202;SDS011;2115;51.038;7.006;2022-08-03T06:21:48;902.03;;;636.10;;
4202;SDS011;2115;51.038;7.006;2022-08-03T06:24:13;773.37;;;575.87;;
4202;SDS011;2115;51.038;7.006;2022-08-03T06:26:39;784.17;;;617.57;;
4202;SDS011;2115;51.038;7.006;2022-08-03T06:29:05;774.37;;;594.93;;
4202;SDS011;2115;51.038;7.006;2022-08-03T06:31:30;778.30;;;599.37;;
4202;SDS011;2115;51.038;7.006;2022-08-03T06:33:56;779.33;;;610.03;;
4202;SDS011;2115;51.038;7.006;2022-08-03T06:36:21;783.03;;;614.33;;
4202;SDS011;2115;51.038;7.006;2022-08-03T06:38:47;791.03;;;631.77;;
4202;SDS011;2115;51.038;7.006;2022-08-03T06:41:12;803.70;;;667.97;;
4202;SDS011;2115;51.038;7.006;2022-08-03T06:43:37;804.63;;;696.03;;
4202;SDS011;2115;51.038;7.006;2022-08-03T06:46:03;790.73;;;642.73;;
4202;SDS011;2115;51.038;7.006;2022-08-03T06:48:31;797.13;;;641.77;;
4202;SDS011;2115;51.038;7.006;2022-08-03T06:50:57;793.70;;;681.80;;
4202;SDS011;2115;51.038;7.006;2022-08-03T06:53:23;793.13;;;685.10;;
4202;SDS011;2115;51.038;7.006;2022-08-03T06:55:48;795.90;;;656.67;;
4202;SDS011;2115;51.038;7.006;2022-08-03T06:58:13;802.13;;;681.63;;
4202;SDS011;2115;51.038;7.006;2022-08-03T07:00:39;790.70;;;645.27;;
4202;SDS011;2115;51.038;7.006;2022-08-03T07:03:04;807.87;;;718.33;;
4202;SDS011;2115;51.038;7.006;2022-08-03T07:05:29;786.10;;;674.33;;
4202;SDS011;2115;51.038;7.006;2022-08-03T07:07:59;798.67;;;709.50;;
4202;SDS011;2115;51.038;7.006;2022-08-03T07:10:25;800.53;;;712.53;;
4202;SDS011;2115;51.038;7.006;2022-08-03T07:12:51;817.87;;;728.80;;
4202;SDS011;2115;51.038;7.006;2022-08-03T07:15:17;818.37;;;729.70;;
4202;SDS011;2115;51.038;7.006;2022-08-03T07:17:42;796.57;;;708.00;;
4202;SDS011;2115;51.038;7.006;2022-08-03T07:20:07;809.83;;;721.47;;
4202;SDS011;2115;51.038;7.006;2022-08-03T07:22:33;800.83;;;712.77;;
4202;SDS011;2115;51.038;7.006;2022-08-03T07:24:59;827.87;;;719.07;;
4202;SDS011;2115;51.038;7.006;2022-08-03T07:27:25;844.10;;;752.60;;
4202;SDS011;2115;51.038;7.006;2022-08-03T07:29:53;835.13;;;745.57;;
4202;SDS011;2115;51.038;7.006;2022-08-03T07:32:19;810.83;;;722.10;;
4202;SDS011;2115;51.038;7.006;2022-08-03T07:34:45;842.93;;;752.90;;
4202;SDS011;2115;51.038;7.006;2022-08-03T07:37:10;821.13;;;731.87;;
4202;SDS011;2115;51.038;7.006;2022-08-03T07:39:35;852.07;;;761.80;;
4202;SDS011;2115;51.038;7.006;2022-08-03T07:42:01;812.03;;;723.03;;
4202;SDS011;2115;51.038;7.006;2022-08-03T07:44:26;837.10;;;747.77;;
4202;SDS011;2115;51.038;7.006;2022-08-03T07:46:51;861.27;;;770.60;;
4202;SDS011;2115;51.038;7.006;2022-08-03T07:49:17;841.20;;;751.10;;
4202;SDS011;2115;51.038;7.006;2022-08-03T07:51:42;872.83;;;781.33;;
4202;SDS011;2115;51.038;7.006;2022-08-03T07:54:07;821.27;;;731.90;;
4202;SDS011;2115;51.038;7.006;2022-08-03T07:56:34;848.73;;;758.67;;
4202;SDS011;2115;51.038;7.006;2022-08-03T07:58:59;842.77;;;753.17;;
4202;SDS011;2115;51.038;7.006;2022-08-03T08:01:26;865.63;;;775.20;;
4202;SDS011;2115;51.038;7.006;2022-08-03T08:03:52;878.40;;;787.90;;
4202;SDS011;2115;51.038;7.006;2022-08-03T08:06:17;854.27;;;764.40;;
4202;SDS011;2115;51.038;7.006;2022-08-03T08:08:43;899.93;;;809.07;;
4202;SDS011;2115;51.038;7.006;2022-08-03T08:11:08;876.13;;;785.53;;
4202;SDS011;2115;51.038;7.006;2022-08-03T08:13:34;901.13;;;809.63;;
4202;SDS011;2115;51.038;7.006;2022-08-03T08:16:01;906.90;;;815.60;;
4202;SDS011;2115;51.038;7.006;2022-08-03T08:18:26;903.80;;;812.53;;
4202;SDS011;2115;51.038;7.006;2022-08-03T08:20:55;862.90;;;772.60;;
4202;SDS011;2115;51.038;7.006;2022-08-03T08:23:21;915.83;;;823.03;;
4202;SDS011;2115;51.038;7.006;2022-08-03T08:25:48;911.67;;;819.57;;
4202;SDS011;2115;51.038;7.006;2022-08-03T08:28:17;855.53;;;763.57;;
4202;SDS011;2115;51.038;7.006;2022-08-03T08:30:46;943.07;;;850.37;;
4202;SDS011;2115;51.038;7.006;2022-08-03T08:33:11;914.40;;;822.73;;
4202;SDS011;2115;51.038;7.006;2022-08-03T08:35:37;923.33;;;831.80;;
4202;SDS011;2115;51.038;7.006;2022-08-03T08:38:02;935.07;;;843.23;;
4202;SDS011;2115;51.038;7.006;2022-08-03T08:40:28;921.57;;;829.00;;
4202;SDS011;2115;51.038;7.006;2022-08-03T08:42:53;918.20;;;827.23;;
4202;SDS011;2115;51.038;7.006;2022-08-03T08:45:19;936.43;;;844.17;;
4202;SDS011;2115;51.038;7.006;2022-08-03T08:47:45;915.50;;;824.20;;
4202;SDS011;2115;51.038;7.006;2022-08-03T08:50:12;909.60;;;819.20;;
4202;SDS011;2115;51.038;7.006;2022-08-03T08:52:39;878.60;;;789.00;;
4202;SDS011;2115;51.038;7.006;2022-08-03T08:55:08;892.63;;;801.30;;
4202;SDS011;2115;51.038;7.006;2022-08-03T08:57:35;919.40;;;828.47;;
4202;SDS011;2115;51.038;7.006;2022-08-03T09:00:08;949.53;;;857.57;;
4202;SDS011;2115;51.038;7.006;2022-08-03T09:02:37;922.30;;;831.53;;
4202;SDS011;2115;51.038;7.006;2022-08-03T09:05:03;918.37;;;827.93;;
4202;SDS011;2115;51.038;7.006;2022-08-03T09:07:29;914.50;;;822.63;;
4202;SDS011;2115;51.038;7.006;2022-08-03T09:09:54;935.20;;;844.40;;
4202;SDS011;2115;51.038;7.006;2022-08-03T09:12:20;944.43;;;852.03;;
4202;SDS011;2115;51.038;7.006;2022-08-03T09:14:45;944.17;;;853.00;;
4202;SDS011;2115;51.038;7.006;2022-08-03T09:17:11;938.83;;;847.50;;
4202;SDS011;2115;51.038;7.006;2022-08-03T09:19:36;941.77;;;849.70;;
4202;SDS011;2115;51.038;7.006;2022-08-03T09:22:12;953.53;;;862.03;;
4202;SDS011;2115;51.038;7.006;2022-08-03T09:24:52;940.77;;;849.80;;
4202;SDS011;2115;51.038;7.006;2022-08-03T09:27:21;965.80;;;873.70;;
4202;SDS011;2115;51.038;7.006;2022-08-03T09:29:47;976.60;;;884.10;;
4202;SDS011;2115;51.038;7.006;2022-08-03T09:32:13;978.57;;;885.60;;
4202;SDS011;2115;51.038;7.006;2022-08-03T09:34:39;976.97;;;885.03;;
4202;SDS011;2115;51.038;7.006;2022-08-03T09:37:07;978.87;;;885.47;;
4202;SDS011;2115;51.038;7.006;2022-08-03T09:39:41;981.07;;;887.90;;
4202;SDS011;2115;51.038;7.006;2022-08-03T09:42:13;965.23;;;873.03;;
4202;SDS011;2115;51.038;7.006;2022-08-03T09:44:43;959.60;;;868.13;;
4202;SDS011;2115;51.038;7.006;2022-08-03T09:47:10;970.43;;;877.67;;
4202;SDS011;2115;51.038;7.006;2022-08-03T09:49:37;941.50;;;850.00;;
4202;SDS011;2115;51.038;7.006;2022-08-03T09:52:13;941.23;;;849.37;;
4202;SDS011;2115;51.038;7.006;2022-08-03T09:54:41;989.60;;;895.90;;
4202;SDS011;2115;51.038;7.006;2022-08-03T09:57:07;960.43;;;867.97;;
4202;SDS011;2115;51.038;7.006;2022-08-03T09:59:33;942.43;;;851.17;;
4202;SDS011;2115;51.038;7.006;2022-08-03T10:01:58;997.40;;;903.53;;
4202;SDS011;2115;51.038;7.006;2022-08-03T10:04:25;974.00;;;881.73;;
4202;SDS011;2115;51.038;7.006;2022-08-03T10:07:07;963.13;;;871.57;;
4202;SDS011;2115;51.038;7.006;2022-08-03T10:09:34;1017.73;;;922.63;;
4202;SDS011;2115;51.038;7.006;2022-08-03T10:12:07;1016.07;;;921.50;;
4202;SDS011;2115;51.038;7.006;2022-08-03T10:14:36;993.97;;;899.80;;
4202;SDS011;2115;51.038;7.006;2022-08-03T10:17:03;995.00;;;901.13;;
4202;SDS011;2115;51.038;7.006;2022-08-03T10:19:28;966.93;;;875.73;;
4202;SDS011;2115;51.038;7.006;2022-08-03T10:21:54;974.83;;;882.77;;
4202;SDS011;2115;51.038;7.006;2022-08-03T10:24:24;983.57;;;892.00;;
4202;SDS011;2115;51.038;7.006;2022-08-03T10:26:51;993.23;;;901.43;;
4202;SDS011;2115;51.038;7.006;2022-08-03T10:29:20;992.73;;;899.90;;
4202;SDS011;2115;51.038;7.006;2022-08-03T10:31:48;984.53;;;892.83;;
4202;SDS011;2115;51.038;7.006;2022-08-03T10:34:18;996.67;;;903.30;;
4202;SDS011;2115;51.038;7.006;2022-08-03T10:36:47;1061.27;;;965.03;;
4202;SDS011;2115;51.038;7.006;2022-08-03T10:39:13;1044.83;;;949.83;;
4202;SDS011;2115;51.038;7.006;2022-08-03T10:41:42;1062.83;;;966.87;;
4202;SDS011;2115;51.038;7.006;2022-08-03T10:44:20;1023.93;;;931.37;;
4202;SDS011;2115;51.038;7.006;2022-08-03T10:46:47;1011.23;;;919.23;;
4202;SDS011;2115;51.038;7.006;2022-08-03T10:49:15;1020.33;;;928.23;;
4202;SDS011;2115;51.038;7.006;2022-08-03T10:51:43;1065.60;;;970.40;;
4202;SDS011;2115;51.038;7.006;2022-08-03T10:58:08;1017.33;;;925.57;;
4202;SDS011;2115;51.038;7.006;2022-08-03T11:00:26;1032.60;;;940.33;;
4202;SDS011;2115;51.038;7.006;2022-08-03T11:05:41;1049.40;;;956.33;;
4202;SDS011;2115;51.038;7.006;2022-08-03T11:10:54;1016.63;;;926.60;;
4202;SDS011;2115;51.038;7.006;2022-08-03T11:13:24;1018.77;;;928.07;;
4202;SDS011;2115;51.038;7.006;2022-08-03T11:15:53;1028.57;;;937.70;;
4202;SDS011;2115;51.038;7.006;2022-08-03T11:18:19;1032.37;;;942.03;;
4202;SDS011;2115;51.038;7.006;2022-08-03T11:23:11;1027.63;;;937.73;;
4202;SDS011;2115;51.038;7.006;2022-08-03T11:26:22;1064.33;;;970.53;;
4202;SDS011;2115;51.038;7.006;2022-08-03T11:28:34;1031.30;;;941.00;;
4202;SDS011;2115;51.038;7.006;2022-08-03T11:36:32;1037.13;;;946.57;;
4202;SDS011;2115;51.038;7.006;2022-08-03T11:39:40;1038.50;;;946.90;;
4202;SDS011;2115;51.038;7.006;2022-08-03T11:44:51;1041.10;;;952.53;;
4202;SDS011;2115;51.038;7.006;2022-08-03T11:47:19;1037.57;;;949.17;;
4202;SDS011;2115;51.038;7.006;2022-08-03T11:49:46;1024.50;;;936.70;;
4202;SDS011;2115;51.038;7.006;2022-08-03T11:52:13;1029.83;;;941.57;;
4202;SDS011;2115;51.038;7.006;2022-08-03T11:54:39;1024.10;;;937.53;;
4202;SDS011;2115;51.038;7.006;2022-08-03T11:57:04;1022.57;;;936.17;;
4202;SDS011;2115;51.038;7.006;2022-08-03T11:59:34;1038.73;;;951.87;;
4202;SDS011;2115;51.038;7.006;2022-08-03T12:02:09;1037.80;;;950.77;;
4202;SDS011;2115;51.038;7.006;2022-08-03T12:04:58;1050.47;;;962.80;;
4202;SDS011;2115;51.038;7.006;2022-08-03T12:07:27;1054.07;;;965.67;;
4202;SDS011;2115;51.038;7.006;2022-08-03T12:12:38;1059.90;;;971.97;;
4202;SDS011;2115;51.038;7.006;2022-08-03T12:15:04;1054.63;;;968.00;;
4202;SDS011;2115;51.038;7.006;2022-08-03T12:17:37;1058.17;;;970.77;;
4202;SDS011;2115;51.038;7.006;2022-08-03T12:20:05;1063.97;;;976.40;;
4202;SDS011;2115;51.038;7.006;2022-08-03T12:22:32;1058.63;;;970.67;;
4202;SDS011;2115;51.038;7.006;2022-08-03T12:24:58;1063.87;;;976.40;;
4202;SDS011;2115;51.038;7.006;2022-08-03T12:27:24;1059.10;;;971.63;;
4202;SDS011;2115;51.038;7.006;2022-08-03T12:29:54;1064.83;;;978.27;;
4202;SDS011;2115;51.038;7.006;2022-08-03T12:32:20;1061.77;;;975.37;;
4202;SDS011;2115;51.038;7.006;2022-08-03T12:34:48;1023.73;;;940.40;;
4202;SDS011;2115;51.038;7.006;2022-08-03T12:37:18;1012.83;;;930.03;;
4202;SDS011;2115;51.038;7.006;2022-08-03T12:39:48;1044.57;;;959.85;;
4202;SDS011;2115;51.038;7.006;2022-08-03T12:42:17;1062.35;;;975.75;;
4202;SDS011;2115;51.038;7.006;2022-08-03T12:44:43;1060.05;;;973.72;;
4202;SDS011;2115;51.038;7.006;2022-08-03T12:47:10;1072.45;;;985.17;;
4202;SDS011;2115;51.038;7.006;2022-08-03T12:49:46;1092.10;;;995.47;;
4202;SDS011;2115;51.038;7.006;2022-08-03T12:52:12;1072.70;;;984.47;;
4202;SDS011;2115;51.038;7.006;2022-08-03T12:54:37;1079.07;;;989.05;;
4202;SDS011;2115;51.038;7.006;2022-08-03T12:57:07;1090.88;;;996.03;;
4202;SDS011;2115;51.038;7.006;2022-08-03T12:59:40;1074.32;;;985.33;;
4202;SDS011;2115;51.038;7.006;2022-08-03T13:04:44;1093.55;;;995.75;;
4202;SDS011;2115;51.038;7.006;2022-08-03T13:07:11;1095.03;;;997.75;;
4202;SDS011;2115;51.038;7.006;2022-08-03T13:09:47;1109.30;;;999.90;;
4202;SDS011;2115;51.038;7.006;2022-08-03T13:12:20;1099.22;;;998.65;;
4202;SDS011;2115;51.038;7.006;2022-08-03T13:14:49;1105.18;;;999.05;;
4202;SDS011;2115;51.038;7.006;2022-08-03T13:17:20;1073.50;;;985.13;;
4202;SDS011;2115;51.038;7.006;2022-08-03T13:19:45;1055.68;;;970.08;;
4202;SDS011;2115;51.038;7.006;2022-08-03T13:24:40;1065.50;;;980.08;;
4202;SDS011;2115;51.038;7.006;2022-08-03T13:27:05;1098.45;;;998.80;;
4202;SDS011;2115;51.038;7.006;2022-08-03T13:29:32;1073.25;;;986.10;;
4202;SDS011;2115;51.038;7.006;2022-08-03T13:31:58;1096.70;;;998.15;;
4202;SDS011;2115;51.038;7.006;2022-08-03T13:34:23;1099.53;;;999.10;;
4202;SDS011;2115;51.038;7.006;2022-08-03T13:36:52;1081.70;;;992.40;;
4202;SDS011;2115;51.038;7.006;2022-08-03T13:39:17;1099.57;;;998.60;;
4202;SDS011;2115;51.038;7.006;2022-08-03T13:41:44;1090.85;;;997.63;;
4202;SDS011;2115;51.038;7.006;2022-08-03T13:44:09;1059.43;;;974.97;;
4202;SDS011;2115;51.038;7.006;2022-08-03T13:46:35;1095.32;;;998.30;;
4202;SDS011;2115;51.038;7.006;2022-08-03T13:49:00;1091.50;;;995.53;;
4202;SDS011;2115;51.038;7.006;2022-08-03T13:51:25;1117.47;;;999.90;;
4202;SDS011;2115;51.038;7.006;2022-08-03T13:53:51;1128.57;;;999.90;;
4202;SDS011;2115;51.038;7.006;2022-08-03T13:56:16;1123.30;;;999.90;;
4202;SDS011;2115;51.038;7.006;2022-08-03T13:58:42;1113.22;;;999.90;;
4202;SDS011;2115;51.038;7.006;2022-08-03T14:01:07;1107.00;;;999.90;;
4202;SDS011;2115;51.038;7.006;2022-08-03T14:03:32;1112.65;;;999.90;;
4202;SDS011;2115;51.038;7.006;2022-08-03T14:05:58;1120.60;;;999.90;;
4202;SDS011;2115;51.038;7.006;2022-08-03T14:08:23;1108.28;;;999.90;;
4202;SDS011;2115;51.038;7.006;2022-08-03T14:10:48;1097.10;;;998.53;;
4202;SDS011;2115;51.038;7.006;2022-08-03T14:13:14;1103.30;;;999.80;;
4202;SDS011;2115;51.038;7.006;2022-08-03T14:15:40;1103.97;;;999.78;;
4202;SDS011;2115;51.038;7.006;2022-08-03T14:18:06;1093.82;;;998.08;;
4202;SDS011;2115;51.038;7.006;2022-08-03T14:20:31;1074.05;;;986.42;;
4202;SDS011;2115;51.038;7.006;2022-08-03T14:22:57;1082.20;;;992.97;;
4202;SDS011;2115;51.038;7.006;2022-08-03T14:25:22;1094.00;;;997.38;;
4202;SDS011;2115;51.038;7.006;2022-08-03T14:27:48;1068.18;;;983.17;;
4202;SDS011;2115;51.038;7.006;2022-08-03T14:30:13;1046.63;;;964.88;;
4202;SDS011;2115;51.038;7.006;2022-08-03T14:32:39;1023.40;;;942.30;;
4202;SDS011;2115;51.038;7.006;2022-08-03T14:35:05;1030.35;;;950.10;;
4202;SDS011;2115;51.038;7.006;2022-08-03T14:37:30;1019.85;;;940.33;;
4202;SDS011;2115;51.038;7.006;2022-08-03T14:39:57;1031.68;;;952.20;;
4202;SDS011;2115;51.038;7.006;2022-08-03T14:42:23;1047.55;;;966.75;;
4202;SDS011;2115;51.038;7.006;2022-08-03T14:44:48;1101.65;;;999.90;;
4202;SDS011;2115;51.038;7.006;2022-08-03T14:47:14;1081.20;;;992.00;;
4202;SDS011;2115;51.038;7.006;2022-08-03T14:49:39;1107.82;;;999.90;;
4202;SDS011;2115;51.038;7.006;2022-08-03T14:52:05;1114.70;;;999.90;;
4202;SDS011;2115;51.038;7.006;2022-08-03T14:54:30;1125.60;;;999.90;;